Hauptseite
METAR-TAF:

METAR-TAF

Flughäfen :

Teesside International Airport

Durham, England

Breite: 54-31N, Länge: 001-25W, Höhe: 37 m

Beobachtung

Neuester Wetterbericht von vor 26 Minuten, um 07:50 UTC
Wind 2 kt aus unterschiedlichen Richtungen
Temperatur 3°C
Luftfeuchtigkeit 93%
Luftdruck 1035 hPa
Sichtweite 10 km oder mehr
keine Wolken unter 1500 m und keine Kumulonimbus oder Gewitterwolken

METAR: EGNV 140750Z VRB02KT CAVOK 03/02 Q1035

Zeit: 09:16 (08:16 UTC)

Prognose

Neuester Wetterbericht von vor 2 Stunden und 50 Minuten, um 05:26 UTC
Gültige Prognose vom 14 um 06 UTC bis 14 um 15 UTC
Wind 4 kt aus Nord/Nordost
Sichtweite 10 km oder mehr
Leicht bewölkt in der Höhe von 4000 ft
Wahrscheinlichkeit 30%
vom 14 um 06 UTC bis 14 um 07 UTC
Sichtweite: 5000 m
feuchter Dunst, Flacher Nebel

TAF: EGNV 140526Z 1406/1415 02004KT 9999 FEW040 PROB30 1406/1407 5000 BR MIFG

Wetterbeobachtungen und Prognosen von mehr als 4000 Flughäfen (METAR und TAF Bericht).

Die verfügbaren Stationen werden durch gelbe und rote Markierungen auf der Karte dargestellt.

Führen Sie die Maus auf sie, um den Namen der Station zu sehen.

Darauf klicken, um die Beobachtung von Wetterbeobachtungen und Prognosen zu sehen.

Um die Karte zu ändern : klicken Sie auf den grünen Tasten mit einem schwarzen Kreuz Zum Vergrößern, auf den grünen Button mit einem Gedankenstrich zu verkleinern, oder auf die grünen Pfeile für benachbarte Karten.


METAR-TAF: